This is the latest recevied weather packets stored in our database for station/object G8PZT. If no packets are shown the sender has not sent any weather packets the latest 10 day(s).
| Time | Temp. | Humidity | Pressure | Rain* | Wind** | Luminosity | Snow |
|---|---|---|---|---|---|---|---|
| 1777619516 | 15° C | 29% | - | 0 mm | - | - | - |
| 1777618916 | 14.44° C | 34% | - | 0 mm | - | - | - |
| 1777618803 | 13.89° C | 35% | - | 0 mm | - | - | - |
| 1777618316 | 12.22° C | 45% | - | 0 mm | - | - | - |
| 1777617716 | 11.67° C | 50% | - | 0 mm | - | - | - |
| 1777617602 | 11.67° C | 53% | - | 0 mm | - | - | - |
| 1777617116 | 10.56° C | 60% | - | 0 mm | - | - | - |
| 1777616516 | 8.89° C | 64% | - | 0 mm | - | - | - |
| 1777616403 | 8.89° C | 64% | - | 0 mm | - | - | - |
| 1777615916 | 7.78° C | 67% | - | 0 mm | - | - | - |
| 1777615316 | 6.11° C | 68% | - | 0 mm | - | - | - |
| 1777615203 | 6.11° C | 68% | - | 0 mm | - | - | - |
| 1777614716 | 5° C | 67% | - | 0 mm | - | - | - |
| 1777614116 | 4.44° C | 67% | - | 0 mm | - | - | - |
| 1777614002 | 4.44° C | 66% | - | 0 mm | - | - | - |
| 1777612915 | 3.89° C | 66% | - | 0 mm | - | - | - |
| 1777612802 | 3.89° C | 66% | - | 0 mm | - | - | - |
| 1777611715 | 3.89° C | 65% | - | 0 mm | - | - | - |
| 1777611602 | 3.89° C | 65% | - | 0 mm | - | - | - |
| 1777611116 | 3.89° C | 65% | - | 0 mm | - | - | - |
| 1777610516 | 3.89° C | 65% | - | 0 mm | - | - | - |
| 1777610402 | 3.89° C | 65% | - | 0 mm | - | - | - |
| 1777609916 | 3.89° C | 64% | - | 0 mm | - | - | - |
| 1777609316 | 3.89° C | 64% | - | 0 mm | - | - | - |
| 1777608716 | 3.89° C | 64% | - | 0 mm | - | - | - |
* Rain latest hour (hover to see other rain measurements)
** Current wind speed in m/s (hover to see current wind gust speed)